createdAt,value
2019-05-29T00:00:23.774Z,37.40
2019-05-29T00:01:24.271Z,37.70
2019-05-29T00:02:23.713Z,37.60
2019-05-29T00:03:23.726Z,37.40
2019-05-29T00:04:23.720Z,37.60
2019-05-29T00:05:23.692Z,37.70
2019-05-29T00:06:23.678Z,37.60
2019-05-29T00:07:23.667Z,37.70
2019-05-29T00:08:23.663Z,37.70
2019-05-29T00:09:24.246Z,37.60
2019-05-29T00:10:23.631Z,37.30
2019-05-29T00:11:23.632Z,37.60
2019-05-29T00:12:23.642Z,37.60
2019-05-29T00:13:23.767Z,37.70
2019-05-29T00:14:27.367Z,37.40
2019-05-29T00:15:23.592Z,37.60
2019-05-29T00:16:24.266Z,37.70
2019-05-29T00:17:23.556Z,37.60
2019-05-29T00:18:24.292Z,37.40
2019-05-29T00:19:23.539Z,37.10
2019-05-29T00:20:23.537Z,37.60
2019-05-29T00:21:24.249Z,37.70
2019-05-29T00:22:24.251Z,37.60
2019-05-29T00:23:24.273Z,37.60
2019-05-29T00:24:23.544Z,37.30
2019-05-29T00:25:23.486Z,37.30
2019-05-29T00:26:24.262Z,37.30
2019-05-29T00:27:23.452Z,37.49
2019-05-29T00:28:24.248Z,37.30
2019-05-29T00:29:23.458Z,37.60
2019-05-29T00:30:23.444Z,37.30
2019-05-29T00:31:23.407Z,37.30
2019-05-29T00:32:23.415Z,37.70
2019-05-29T00:33:23.385Z,37.10
2019-05-29T00:34:23.778Z,37.79
2019-05-29T00:35:24.258Z,37.30
2019-05-29T00:36:23.349Z,37.60
2019-05-29T00:37:24.262Z,37.60
2019-05-29T00:38:23.327Z,37.99
2019-05-29T00:39:23.327Z,37.49
2019-05-29T00:40:23.304Z,37.79
2019-05-29T00:41:24.253Z,37.40
2019-05-29T00:42:24.267Z,37.92
2019-05-29T00:43:23.284Z,37.60
2019-05-29T00:44:33.898Z,38.09
2019-05-29T00:45:23.256Z,37.49
2019-05-29T00:46:23.247Z,37.79
2019-05-29T00:47:23.245Z,37.90
2019-05-29T00:48:23.751Z,37.90
2019-05-29T00:49:23.226Z,37.92
2019-05-29T00:50:23.749Z,37.90
2019-05-29T00:51:23.768Z,37.90
2019-05-29T00:52:23.181Z,37.79
2019-05-29T00:53:23.177Z,37.70
2019-05-29T00:54:23.273Z,37.92
2019-05-29T00:55:23.749Z,37.79
2019-05-29T00:56:23.133Z,37.51
2019-05-29T00:57:23.122Z,37.90
2019-05-29T00:58:23.751Z,37.90
2019-05-29T00:59:23.118Z,37.90
2019-05-29T01:00:23.763Z,37.90
2019-05-29T01:01:23.081Z,37.79
2019-05-29T01:02:23.066Z,37.92
2019-05-29T01:03:23.058Z,37.79
2019-05-29T01:04:23.101Z,37.71
2019-05-29T01:05:23.039Z,37.90
2019-05-29T01:06:23.021Z,37.90
2019-05-29T01:07:23.014Z,37.70
2019-05-29T01:08:23.748Z,37.60
2019-05-29T01:09:23.784Z,37.81
2019-05-29T01:10:23.281Z,37.60
2019-05-29T01:11:22.980Z,37.71
2019-05-29T01:12:22.966Z,37.60
2019-05-29T01:13:23.752Z,38.09
2019-05-29T01:14:23.756Z,37.32
2019-05-29T01:15:22.944Z,37.70
2019-05-29T01:16:22.924Z,37.71
2019-05-29T01:17:22.907Z,37.32
2019-05-29T01:18:22.900Z,38.01
2019-05-29T01:19:22.939Z,38.01
2019-05-29T01:20:23.263Z,38.01
2019-05-29T01:21:22.868Z,37.32
2019-05-29T01:22:22.859Z,37.32
2019-05-29T01:23:23.751Z,38.01
2019-05-29T01:24:22.839Z,38.01
2019-05-29T01:25:22.842Z,38.01
2019-05-29T01:26:22.934Z,37.30
2019-05-29T01:27:23.122Z,37.62
2019-05-29T01:28:23.151Z,37.71
2019-05-29T01:29:23.760Z,37.92
2019-05-29T01:30:23.428Z,38.01
2019-05-29T01:31:23.779Z,38.01
2019-05-29T01:32:23.733Z,37.32
2019-05-29T01:33:23.745Z,37.81
2019-05-29T01:34:23.870Z,37.51
2019-05-29T01:35:23.881Z,37.92
2019-05-29T01:36:22.708Z,37.32
2019-05-29T01:37:22.691Z,37.81
2019-05-29T01:38:23.539Z,37.51
2019-05-29T01:39:23.508Z,37.49
2019-05-29T01:40:27.452Z,37.51
2019-05-29T01:41:23.555Z,37.51
2019-05-29T01:42:23.523Z,37.32
2019-05-29T01:43:23.574Z,37.32
2019-05-29T01:44:23.729Z,37.51
2019-05-29T01:45:23.554Z,37.32
2019-05-29T01:46:23.933Z,37.81
2019-05-29T01:47:23.642Z,37.32
2019-05-29T01:48:23.645Z,37.32
2019-05-29T01:49:23.683Z,37.32
2019-05-29T01:50:23.698Z,37.32
2019-05-29T01:51:23.561Z,37.32
2019-05-29T01:52:23.797Z,37.51
2019-05-29T01:53:23.694Z,37.51
2019-05-29T01:54:23.827Z,37.32
2019-05-29T01:55:23.825Z,37.12
2019-05-29T01:56:23.889Z,37.12
2019-05-29T01:57:22.475Z,37.02
2019-05-29T01:58:22.464Z,37.12
2019-05-29T01:59:22.469Z,37.02
2019-05-29T02:00:22.464Z,37.62
2019-05-29T02:01:22.448Z,37.12
2019-05-29T02:02:22.428Z,36.32
2019-05-29T02:03:22.419Z,37.62
2019-05-29T02:04:22.440Z,36.12
2019-05-29T02:05:22.418Z,37.21
2019-05-29T02:06:24.012Z,36.32
2019-05-29T02:07:22.515Z,37.41
2019-05-29T02:08:22.359Z,37.41
2019-05-29T02:09:22.343Z,37.41
2019-05-29T02:10:22.355Z,36.32
2019-05-29T02:11:23.354Z,37.41
2019-05-29T02:12:22.437Z,36.32
2019-05-29T02:13:23.463Z,36.32
2019-05-29T02:14:22.728Z,36.32
2019-05-29T02:15:31.487Z,36.32
2019-05-29T02:16:22.706Z,36.32
2019-05-29T02:17:22.283Z,36.42
2019-05-29T02:18:22.977Z,37.41
2019-05-29T02:19:23.912Z,36.32
2019-05-29T02:20:23.176Z,36.42
2019-05-29T02:21:22.377Z,36.32
2019-05-29T02:22:23.068Z,37.51
2019-05-29T02:23:22.766Z,36.22
2019-05-29T02:24:23.245Z,36.42
2019-05-29T02:25:22.455Z,36.42
2019-05-29T02:26:22.437Z,36.22
2019-05-29T02:27:23.414Z,36.42
2019-05-29T02:28:22.587Z,36.42
2019-05-29T02:29:22.962Z,36.32
2019-05-29T02:30:23.591Z,36.42
2019-05-29T02:31:24.138Z,36.42
2019-05-29T02:32:23.603Z,36.52
2019-05-29T02:33:24.268Z,36.42
2019-05-29T02:34:24.909Z,36.52
2019-05-29T02:35:24.636Z,36.32
2019-05-29T02:36:22.498Z,36.52
2019-05-29T02:37:22.290Z,36.32
2019-05-29T02:38:23.014Z,36.32
2019-05-29T02:39:23.028Z,36.32
2019-05-29T02:40:24.146Z,36.52
2019-05-29T02:41:24.189Z,36.52
2019-05-29T02:42:22.672Z,36.52
2019-05-29T02:43:23.585Z,36.42
2019-05-29T02:44:23.479Z,36.52
2019-05-29T02:45:26.154Z,36.32
2019-05-29T02:46:23.814Z,36.52
2019-05-29T02:47:23.576Z,37.12
2019-05-29T02:48:23.228Z,36.52
2019-05-29T02:49:23.756Z,37.12
2019-05-29T02:50:22.322Z,36.72
2019-05-29T02:51:24.052Z,36.82
2019-05-29T02:52:24.285Z,37.02
2019-05-29T02:53:22.293Z,36.92
2019-05-29T02:54:22.598Z,37.02
2019-05-29T02:55:22.607Z,37.02
2019-05-29T02:56:22.987Z,37.02
2019-05-29T02:57:22.914Z,37.02
2019-05-29T02:58:23.550Z,36.92
2019-05-29T02:59:23.465Z,36.92
2019-05-29T03:00:23.409Z,36.72
2019-05-29T03:01:23.594Z,37.02
2019-05-29T03:02:23.343Z,36.82
2019-05-29T03:03:23.058Z,36.82
2019-05-29T03:04:21.849Z,36.42
2019-05-29T03:05:23.736Z,36.72
2019-05-29T03:06:22.304Z,36.72
2019-05-29T03:07:22.288Z,36.72
2019-05-29T03:08:22.234Z,36.72
2019-05-29T03:09:22.804Z,36.82
2019-05-29T03:10:22.578Z,36.72
2019-05-29T03:11:23.053Z,36.72
2019-05-29T03:12:22.901Z,36.82
2019-05-29T03:13:22.973Z,36.72
2019-05-29T03:14:22.871Z,36.44
2019-05-29T03:15:23.392Z,36.72
2019-05-29T03:16:23.641Z,36.82
2019-05-29T03:17:21.615Z,36.72
2019-05-29T03:18:21.607Z,36.62
2019-05-29T03:19:23.808Z,36.62
2019-05-29T03:20:21.594Z,36.72
2019-05-29T03:21:21.591Z,36.72
2019-05-29T03:22:21.565Z,36.62
2019-05-29T03:23:21.557Z,36.62
2019-05-29T03:24:22.272Z,36.72
2019-05-29T03:25:21.526Z,36.72
2019-05-29T03:26:24.750Z,36.72
2019-05-29T03:27:21.529Z,36.72
2019-05-29T03:28:21.498Z,36.83
2019-05-29T03:29:21.483Z,36.72
2019-05-29T03:30:21.476Z,36.72
2019-05-29T03:31:21.482Z,36.72
2019-05-29T03:32:21.785Z,36.72
2019-05-29T03:33:21.440Z,36.82
2019-05-29T03:34:21.428Z,36.62
2019-05-29T03:35:21.469Z,36.83
2019-05-29T03:36:21.498Z,36.74
2019-05-29T03:37:21.415Z,36.72
2019-05-29T03:38:21.410Z,36.64
2019-05-29T03:39:21.398Z,36.62
2019-05-29T03:40:21.401Z,36.72
2019-05-29T03:41:22.275Z,36.62
2019-05-29T03:42:21.358Z,36.72
2019-05-29T03:43:21.343Z,36.72
2019-05-29T03:44:21.319Z,36.74
2019-05-29T03:45:21.362Z,36.74
2019-05-29T03:46:31.379Z,36.82
2019-05-29T03:47:21.305Z,36.72
2019-05-29T03:48:21.278Z,36.82
2019-05-29T03:49:21.263Z,36.82
2019-05-29T03:50:21.268Z,36.83
2019-05-29T03:51:21.783Z,36.72
2019-05-29T03:52:21.255Z,36.42
2019-05-29T03:53:21.230Z,36.62
2019-05-29T03:54:21.212Z,36.74
2019-05-29T03:55:21.208Z,36.72
2019-05-29T03:56:21.777Z,36.72
2019-05-29T03:57:21.194Z,36.74
2019-05-29T03:58:21.161Z,36.62
2019-05-29T03:59:21.169Z,36.74
2019-05-29T04:00:21.142Z,36.64
2019-05-29T04:01:21.130Z,36.44
2019-05-29T04:02:21.132Z,36.72
2019-05-29T04:03:21.112Z,36.62
2019-05-29T04:04:21.122Z,36.44
2019-05-29T04:05:21.770Z,36.42
2019-05-29T04:06:21.770Z,36.62
2019-05-29T04:07:21.090Z,36.42
2019-05-29T04:08:21.055Z,36.62
2019-05-29T04:09:21.048Z,36.62
2019-05-29T04:10:21.050Z,36.64
2019-05-29T04:11:21.768Z,36.62
2019-05-29T04:12:21.285Z,36.42
2019-05-29T04:13:21.001Z,36.74
2019-05-29T04:14:21.781Z,36.62
2019-05-29T04:15:20.976Z,36.52
2019-05-29T04:16:20.995Z,36.42
2019-05-29T04:17:21.284Z,36.83
2019-05-29T04:18:20.949Z,36.72
2019-05-29T04:19:20.937Z,36.42
2019-05-29T04:20:20.922Z,36.52
2019-05-29T04:21:20.915Z,36.62
2019-05-29T04:22:20.920Z,36.42
2019-05-29T04:23:20.890Z,36.42
2019-05-29T04:24:21.780Z,36.74
2019-05-29T04:25:21.780Z,36.72
2019-05-29T04:26:20.893Z,36.72
2019-05-29T04:27:21.285Z,36.62
2019-05-29T04:28:20.845Z,36.54
2019-05-29T04:29:21.772Z,36.82
2019-05-29T04:30:20.817Z,36.62
2019-05-29T04:31:20.842Z,36.44
2019-05-29T04:32:21.290Z,36.74
2019-05-29T04:33:20.789Z,36.52
2019-05-29T04:34:20.795Z,36.42
2019-05-29T04:35:21.320Z,36.42
2019-05-29T04:36:20.750Z,36.72
2019-05-29T04:37:20.827Z,36.72
2019-05-29T04:38:20.759Z,36.72
2019-05-29T04:39:20.776Z,36.83
2019-05-29T04:40:21.278Z,36.44
2019-05-29T04:41:20.699Z,36.42
2019-05-29T04:42:21.296Z,36.44
2019-05-29T04:43:20.703Z,36.74
2019-05-29T04:44:20.709Z,36.74
2019-05-29T04:45:21.277Z,36.72
2019-05-29T04:46:20.657Z,36.42
2019-05-29T04:47:20.643Z,36.74
2019-05-29T04:48:20.658Z,36.44
2019-05-29T04:49:20.727Z,36.72
2019-05-29T04:50:20.613Z,36.74
2019-05-29T04:51:20.607Z,36.62
2019-05-29T04:52:20.597Z,36.72
2019-05-29T04:53:20.603Z,36.72
2019-05-29T04:54:20.587Z,36.64
2019-05-29T04:55:20.559Z,36.64
2019-05-29T04:56:20.574Z,37.12
2019-05-29T04:57:20.542Z,36.74
2019-05-29T04:58:20.578Z,36.64
2019-05-29T04:59:20.544Z,36.72
2019-05-29T05:00:20.529Z,36.64
2019-05-29T05:01:20.506Z,36.72
2019-05-29T05:02:20.604Z,36.72
2019-05-29T05:03:20.799Z,36.74
2019-05-29T05:04:20.468Z,36.83
2019-05-29T05:05:20.450Z,37.12
2019-05-29T05:06:21.277Z,36.64
2019-05-29T05:07:20.421Z,36.64
2019-05-29T05:08:20.430Z,36.72
2019-05-29T05:09:20.394Z,36.62
2019-05-29T05:10:20.432Z,36.82
2019-05-29T05:11:20.389Z,36.83
2019-05-29T05:12:20.381Z,37.12
2019-05-29T05:13:20.389Z,36.82
2019-05-29T05:14:20.357Z,36.72
2019-05-29T05:15:20.329Z,36.64
2019-05-29T05:16:20.320Z,37.04
2019-05-29T05:17:26.362Z,36.82
2019-05-29T05:18:20.806Z,36.64
2019-05-29T05:19:20.302Z,36.82
2019-05-29T05:20:20.276Z,36.72
2019-05-29T05:21:20.775Z,36.82
2019-05-29T05:22:20.256Z,36.54
2019-05-29T05:23:20.275Z,36.54
2019-05-29T05:24:20.235Z,36.83
2019-05-29T05:25:20.218Z,36.34
2019-05-29T05:26:20.788Z,36.74
2019-05-29T05:27:20.221Z,36.72
2019-05-29T05:28:20.308Z,36.42
2019-05-29T05:29:20.178Z,37.51
2019-05-29T05:30:20.173Z,37.51
2019-05-29T05:31:20.164Z,37.41
2019-05-29T05:32:20.168Z,37.51
2019-05-29T05:33:20.208Z,37.93
2019-05-29T05:34:20.788Z,38.03
2019-05-29T05:35:20.117Z,37.81
2019-05-29T05:36:20.788Z,37.02
2019-05-29T05:37:20.097Z,38.03
2019-05-29T05:38:20.298Z,37.62
2019-05-29T05:39:20.086Z,37.81
2019-05-29T05:40:20.065Z,37.41
2019-05-29T05:41:20.047Z,37.41
2019-05-29T05:42:20.044Z,37.32
2019-05-29T05:43:24.105Z,37.34
2019-05-29T05:44:20.293Z,37.34
2019-05-29T05:45:20.008Z,37.41
2019-05-29T05:46:19.999Z,36.24
2019-05-29T05:47:19.986Z,37.23
2019-05-29T05:48:19.979Z,36.34
2019-05-29T05:49:20.314Z,36.34
2019-05-29T05:50:20.075Z,36.22
2019-05-29T05:51:19.945Z,36.44
2019-05-29T05:52:19.992Z,36.42
2019-05-29T05:53:19.970Z,36.32
2019-05-29T05:54:20.301Z,36.42
2019-05-29T05:55:19.925Z,36.52
2019-05-29T05:56:19.906Z,36.42
2019-05-29T05:57:19.886Z,36.32
2019-05-29T05:58:19.870Z,36.52
2019-05-29T05:59:19.880Z,37.02
2019-05-29T06:00:20.787Z,36.64
2019-05-29T06:01:20.793Z,37.02
2019-05-29T06:02:19.871Z,37.02
2019-05-29T06:03:19.835Z,36.72
2019-05-29T06:04:19.835Z,36.82
2019-05-29T06:05:20.805Z,36.82
2019-05-29T06:06:20.779Z,36.62
2019-05-29T06:07:19.787Z,36.42
2019-05-29T06:08:19.808Z,36.72
2019-05-29T06:09:19.802Z,36.74
2019-05-29T06:10:19.736Z,36.72
2019-05-29T06:11:20.284Z,36.74
2019-05-29T06:12:19.732Z,36.42
2019-05-29T06:13:19.713Z,36.62
2019-05-29T06:14:19.724Z,36.44
2019-05-29T06:15:20.316Z,36.62
2019-05-29T06:16:19.675Z,36.42
2019-05-29T06:17:21.852Z,36.72
2019-05-29T06:18:21.667Z,36.72
2019-05-29T06:19:19.719Z,36.72
2019-05-29T06:20:19.638Z,36.93
2019-05-29T06:21:20.344Z,36.72
2019-05-29T06:22:19.616Z,36.62
2019-05-29T06:23:19.600Z,36.62
2019-05-29T06:24:19.660Z,36.52
2019-05-29T06:25:19.586Z,36.52
2019-05-29T06:26:19.571Z,36.32
2019-05-29T06:27:19.609Z,36.44
2019-05-29T06:28:20.283Z,36.32
2019-05-29T06:29:19.555Z,36.42
2019-05-29T06:30:19.528Z,36.32
2019-05-29T06:31:19.510Z,36.32
2019-05-29T06:32:19.530Z,36.32
2019-05-29T06:33:19.490Z,36.32
2019-05-29T06:34:19.509Z,36.32
2019-05-29T06:35:19.499Z,37.51
2019-05-29T06:36:19.474Z,36.52
2019-05-29T06:37:19.480Z,37.41
2019-05-29T06:38:20.293Z,37.41
2019-05-29T06:39:19.493Z,36.42
2019-05-29T06:40:19.418Z,37.41
2019-05-29T06:41:19.416Z,36.22
2019-05-29T06:42:19.399Z,37.32
2019-05-29T06:43:19.390Z,37.41
2019-05-29T06:44:19.571Z,37.51
2019-05-29T06:45:19.373Z,36.12
2019-05-29T06:46:19.358Z,35.92
2019-05-29T06:47:19.349Z,36.32
2019-05-29T06:48:30.711Z,36.32
2019-05-29T06:49:19.356Z,37.41
2019-05-29T06:50:19.391Z,35.92
2019-05-29T06:51:19.298Z,37.32
2019-05-29T06:52:20.431Z,38.31
2019-05-29T06:53:19.295Z,38.11
2019-05-29T06:54:19.296Z,38.09
2019-05-29T06:55:19.261Z,38.01
2019-05-29T06:56:19.826Z,38.29
2019-05-29T06:57:19.243Z,40.28
2019-05-29T06:58:21.324Z,39.29
2019-05-29T06:59:19.250Z,39.78
2019-05-29T07:00:34.480Z,39.18
2019-05-29T07:01:19.195Z,38.79
2019-05-29T07:02:19.180Z,39.29
2019-05-29T07:03:19.169Z,39.59
2019-05-29T07:04:19.159Z,41.28
2019-05-29T07:05:19.166Z,42.07
2019-05-29T07:06:19.138Z,41.77
2019-05-29T07:07:19.141Z,41.58
2019-05-29T07:08:35.240Z,41.67
2019-05-29T07:09:19.111Z,42.27
2019-05-29T07:10:19.346Z,41.77
2019-05-29T07:11:19.089Z,41.87
2019-05-29T07:12:19.071Z,41.97
2019-05-29T07:13:19.077Z,41.87
2019-05-29T07:14:19.781Z,40.88
2019-05-29T07:15:19.306Z,41.25
2019-05-29T07:16:19.028Z,41.17
2019-05-29T07:17:19.782Z,40.78
2019-05-29T07:18:19.021Z,40.26
2019-05-29T07:19:25.647Z,39.48
2019-05-29T07:20:19.008Z,39.59
2019-05-29T07:21:19.008Z,40.06
2019-05-29T07:22:18.977Z,39.18
2019-05-29T07:23:18.959Z,39.29
2019-05-29T07:24:18.949Z,39.07
2019-05-29T07:25:18.960Z,38.97
2019-05-29T07:26:18.928Z,38.77
2019-05-29T07:27:19.783Z,39.07
2019-05-29T07:28:18.910Z,37.88
2019-05-29T07:29:18.915Z,37.77
2019-05-29T07:30:18.911Z,38.47
2019-05-29T07:31:18.877Z,38.28
2019-05-29T07:32:19.833Z,38.28
2019-05-29T07:33:18.854Z,38.28
2019-05-29T07:34:18.841Z,38.67
2019-05-29T07:35:18.839Z,38.28
2019-05-29T07:36:18.841Z,38.28
2019-05-29T07:37:18.805Z,37.98
2019-05-29T07:38:18.802Z,38.37
2019-05-29T07:39:18.792Z,37.98
2019-05-29T07:40:18.797Z,37.98
2019-05-29T07:41:18.775Z,37.98
2019-05-29T07:42:19.318Z,38.07
2019-05-29T07:43:18.778Z,38.07
2019-05-29T07:44:18.727Z,38.07
2019-05-29T07:45:18.737Z,37.88
2019-05-29T07:46:18.720Z,37.48
2019-05-29T07:47:19.295Z,37.28
2019-05-29T07:48:19.289Z,37.88
2019-05-29T07:49:18.694Z,37.38
2019-05-29T07:50:18.800Z,36.19
2019-05-29T07:51:18.657Z,36.29
2019-05-29T07:52:18.657Z,36.98
2019-05-29T07:53:18.642Z,37.08
2019-05-29T07:54:19.333Z,36.68
2019-05-29T07:55:18.644Z,36.98
2019-05-29T07:56:22.713Z,36.38
2019-05-29T07:57:18.598Z,36.38
2019-05-29T07:58:18.578Z,36.27
2019-05-29T07:59:19.289Z,35.97
2019-05-29T08:00:18.636Z,36.19
2019-05-29T08:01:18.564Z,35.87
2019-05-29T08:02:18.539Z,36.08
2019-05-29T08:03:18.525Z,36.08
2019-05-29T08:04:18.520Z,35.97
2019-05-29T08:05:18.816Z,36.07
2019-05-29T08:06:18.545Z,35.59
2019-05-29T08:07:19.300Z,35.17
2019-05-29T08:08:18.475Z,35.69
2019-05-29T08:09:18.461Z,36.07
2019-05-29T08:10:18.467Z,35.97
2019-05-29T08:11:19.290Z,35.87
2019-05-29T08:12:18.436Z,35.47
2019-05-29T08:13:18.426Z,34.78
2019-05-29T08:14:18.433Z,34.98
2019-05-29T08:15:18.415Z,35.39
2019-05-29T08:16:18.387Z,35.17
2019-05-29T08:17:18.403Z,34.48
2019-05-29T08:18:19.293Z,34.48
2019-05-29T08:19:18.354Z,34.48
2019-05-29T08:20:18.384Z,35.17
2019-05-29T08:21:18.329Z,35.08
2019-05-29T08:22:33.361Z,34.98
2019-05-29T08:23:18.319Z,34.48
2019-05-29T08:24:18.310Z,34.48
2019-05-29T08:25:18.788Z,34.38
2019-05-29T08:26:18.296Z,34.28
2019-05-29T08:27:18.268Z,33.69
2019-05-29T08:28:18.796Z,33.69
2019-05-29T08:29:18.258Z,33.39
2019-05-29T08:30:18.235Z,33.69
2019-05-29T08:31:18.246Z,34.08
2019-05-29T08:32:18.226Z,33.98
2019-05-29T08:33:18.198Z,33.59
2019-05-29T08:34:18.795Z,33.69
2019-05-29T08:35:18.184Z,33.98
2019-05-29T08:36:18.185Z,33.69
2019-05-29T08:37:18.172Z,33.29
2019-05-29T08:38:18.793Z,33.48
2019-05-29T08:39:33.422Z,33.69
2019-05-29T08:40:18.128Z,33.29
2019-05-29T08:41:18.139Z,33.39
2019-05-29T08:42:23.340Z,32.99
2019-05-29T08:43:18.094Z,33.48
2019-05-29T08:44:18.101Z,33.48
2019-05-29T08:45:18.078Z,33.48
2019-05-29T08:46:18.324Z,33.48
2019-05-29T08:47:18.055Z,32.89
2019-05-29T08:48:18.042Z,33.98
2019-05-29T08:49:18.044Z,33.29
2019-05-29T08:50:19.322Z,32.79
2019-05-29T08:51:18.045Z,32.89
2019-05-29T08:52:18.023Z,32.79
2019-05-29T08:53:17.999Z,32.79
2019-05-29T08:54:23.964Z,32.89
2019-05-29T08:55:17.965Z,32.69
2019-05-29T08:56:17.969Z,33.09
2019-05-29T08:57:17.954Z,32.79
2019-05-29T08:58:17.953Z,33.18
2019-05-29T08:59:17.925Z,33.09
2019-05-29T09:00:17.914Z,33.69
2019-05-29T09:01:18.823Z,32.20
2019-05-29T09:02:17.920Z,32.09
2019-05-29T09:03:18.819Z,32.29
2019-05-29T09:04:18.820Z,32.69
2019-05-29T09:05:17.879Z,32.59
2019-05-29T09:06:18.838Z,31.99
2019-05-29T09:07:17.846Z,32.49
2019-05-29T09:08:17.829Z,32.89
2019-05-29T09:09:17.823Z,32.59
2019-05-29T09:10:18.794Z,32.69
2019-05-29T09:11:18.304Z,32.49
2019-05-29T09:12:17.806Z,32.39
2019-05-29T09:13:17.782Z,32.39
2019-05-29T09:14:17.772Z,32.28
2019-05-29T09:15:21.185Z,32.48
2019-05-29T09:16:17.764Z,32.39
2019-05-29T09:17:18.487Z,32.39
2019-05-29T09:18:19.693Z,32.49
2019-05-29T09:19:18.822Z,32.79
2019-05-29T09:20:35.179Z,32.59
2019-05-29T09:21:19.068Z,32.57
2019-05-29T09:22:18.573Z,32.08
2019-05-29T09:23:18.882Z,32.28
2019-05-29T09:24:19.222Z,32.28
2019-05-29T09:25:18.972Z,32.38
2019-05-29T09:26:22.421Z,31.78
2019-05-29T09:27:17.629Z,31.99
2019-05-29T09:28:19.139Z,31.40
2019-05-29T09:29:20.030Z,31.88
2019-05-29T09:30:19.979Z,31.58
2019-05-29T09:31:19.018Z,32.20
2019-05-29T09:32:20.319Z,31.60
2019-05-29T09:33:19.765Z,30.79
2019-05-29T09:34:18.769Z,30.89
2019-05-29T09:35:19.445Z,30.90
2019-05-29T09:36:18.775Z,30.41
2019-05-29T09:37:18.938Z,30.41
2019-05-29T09:38:18.686Z,31.20
2019-05-29T09:39:18.380Z,31.00
2019-05-29T09:40:18.795Z,30.60
2019-05-29T09:41:18.992Z,31.10
2019-05-29T09:42:20.010Z,30.70
2019-05-29T09:43:19.800Z,30.51
2019-05-29T09:44:31.105Z,30.80
2019-05-29T09:45:17.953Z,30.70
2019-05-29T09:46:18.665Z,30.90
2019-05-29T09:47:19.014Z,30.41
2019-05-29T09:48:21.741Z,30.60
2019-05-29T09:49:18.383Z,30.70
2019-05-29T09:50:18.805Z,30.70
2019-05-29T09:51:21.262Z,30.90
2019-05-29T09:52:17.809Z,30.80
2019-05-29T09:53:17.369Z,30.80
2019-05-29T09:54:17.386Z,30.79
2019-05-29T09:55:18.308Z,30.89
2019-05-29T09:56:17.314Z,30.80
2019-05-29T09:57:17.371Z,30.80
2019-05-29T09:58:17.846Z,30.79
2019-05-29T09:59:17.279Z,30.59
2019-05-29T10:00:17.801Z,30.99
2019-05-29T10:01:24.128Z,31.58
2019-05-29T10:02:17.301Z,30.59
2019-05-29T10:03:17.283Z,31.38
2019-05-29T10:04:17.234Z,30.70
2019-05-29T10:05:17.909Z,30.41
2019-05-29T10:06:17.213Z,30.51
2019-05-29T10:07:17.237Z,30.51
2019-05-29T10:08:17.815Z,30.89
2019-05-29T10:09:17.181Z,30.89
2019-05-29T10:10:17.184Z,30.89
2019-05-29T10:11:17.172Z,31.98
2019-05-29T10:12:17.328Z,31.78
2019-05-29T10:13:17.851Z,30.39
2019-05-29T10:14:17.121Z,30.69
2019-05-29T10:15:17.816Z,30.19
2019-05-29T10:16:17.098Z,31.29
2019-05-29T10:17:17.353Z,31.48
2019-05-29T10:18:31.249Z,30.49
2019-05-29T10:19:17.075Z,30.69
2019-05-29T10:20:17.809Z,30.09
2019-05-29T10:21:17.052Z,30.09
2019-05-29T10:22:17.053Z,30.99
2019-05-29T10:23:19.995Z,30.49
2019-05-29T10:24:17.047Z,31.67
2019-05-29T10:25:17.005Z,32.28
2019-05-29T10:26:17.815Z,30.47
2019-05-29T10:27:16.997Z,29.20
2019-05-29T10:28:16.990Z,29.50
2019-05-29T10:29:16.963Z,29.99
2019-05-29T10:30:16.951Z,29.19
2019-05-29T10:31:17.806Z,29.20
2019-05-29T10:32:16.967Z,29.68
2019-05-29T10:33:17.813Z,29.88
2019-05-29T10:34:17.805Z,30.39
2019-05-29T10:35:16.906Z,29.99
2019-05-29T10:36:17.811Z,29.20
2019-05-29T10:37:18.181Z,29.48
2019-05-29T10:38:16.883Z,29.68
2019-05-29T10:39:16.848Z,29.69
2019-05-29T10:40:16.847Z,29.48
2019-05-29T10:41:16.844Z,29.28
2019-05-29T10:42:20.478Z,29.19
2019-05-29T10:43:33.135Z,29.58
2019-05-29T10:44:16.827Z,29.58
2019-05-29T10:45:16.781Z,28.89
2019-05-29T10:46:17.309Z,29.48
2019-05-29T10:47:16.775Z,29.48
2019-05-29T10:48:16.838Z,28.69
2019-05-29T10:49:16.743Z,29.28
2019-05-29T10:50:16.809Z,29.38
2019-05-29T10:51:16.719Z,29.78
2019-05-29T10:52:17.676Z,30.47
2019-05-29T10:53:16.719Z,29.78
2019-05-29T10:54:17.315Z,29.27
2019-05-29T10:55:17.310Z,29.27
2019-05-29T10:56:20.817Z,28.39
2019-05-29T10:57:16.681Z,29.68
2019-05-29T10:58:16.867Z,29.38
2019-05-29T10:59:16.645Z,28.19
2019-05-29T11:00:16.634Z,28.39
2019-05-29T11:01:16.619Z,28.88
2019-05-29T11:02:16.609Z,28.88
2019-05-29T11:03:16.829Z,28.59
2019-05-29T11:04:16.613Z,28.18
2019-05-29T11:05:16.577Z,28.67
2019-05-29T11:06:17.355Z,28.28
2019-05-29T11:07:16.551Z,28.97
2019-05-29T11:08:16.839Z,28.08
2019-05-29T11:09:17.319Z,28.18
2019-05-29T11:10:16.519Z,28.77
2019-05-29T11:11:16.553Z,28.18
2019-05-29T11:12:16.545Z,28.08
2019-05-29T11:13:16.497Z,28.18
2019-05-29T11:14:16.473Z,28.58
2019-05-29T11:15:21.366Z,28.77
2019-05-29T11:16:16.491Z,30.56
2019-05-29T11:17:17.317Z,30.66
2019-05-29T11:18:16.481Z,30.56
2019-05-29T11:19:17.313Z,29.37
2019-05-29T11:20:17.312Z,30.46
2019-05-29T11:21:16.408Z,29.67
2019-05-29T11:22:25.656Z,29.38
2019-05-29T11:23:16.412Z,29.17
2019-05-29T11:24:16.419Z,29.47
2019-05-29T11:25:23.735Z,29.67
2019-05-29T11:26:16.408Z,29.17
2019-05-29T11:27:17.311Z,29.17
2019-05-29T11:28:16.336Z,28.97
2019-05-29T11:29:16.310Z,29.07
2019-05-29T11:30:16.815Z,28.77
2019-05-29T11:31:16.288Z,28.97
2019-05-29T11:32:16.812Z,28.97
2019-05-29T11:33:16.330Z,29.17
2019-05-29T11:34:16.829Z,29.47
2019-05-29T11:35:16.248Z,29.57
2019-05-29T11:36:16.241Z,29.57
2019-05-29T11:37:16.848Z,29.37
2019-05-29T11:38:16.358Z,29.57
2019-05-29T11:39:16.857Z,29.27
2019-05-29T11:40:16.881Z,29.07
2019-05-29T11:41:25.820Z,29.27
2019-05-29T11:42:26.838Z,29.07
2019-05-29T11:43:16.177Z,29.67
2019-05-29T11:44:16.876Z,29.25
2019-05-29T11:45:16.874Z,29.06
2019-05-29T11:46:16.155Z,28.67
2019-05-29T11:47:16.129Z,28.77
2019-05-29T11:48:16.151Z,28.27
2019-05-29T11:49:16.106Z,28.08
2019-05-29T11:50:19.871Z,28.06
2019-05-29T11:51:16.859Z,28.17
2019-05-29T11:52:24.494Z,28.86
2019-05-29T11:53:16.076Z,29.55
2019-05-29T11:54:16.114Z,29.46
2019-05-29T11:55:16.031Z,28.76
2019-05-29T11:56:16.864Z,29.36
2019-05-29T11:57:16.882Z,29.16
2019-05-29T11:58:30.644Z,29.25
2019-05-29T11:59:16.010Z,29.25
2019-05-29T12:00:20.415Z,29.46
2019-05-29T12:01:15.970Z,29.17
2019-05-29T12:02:15.960Z,29.16
2019-05-29T12:03:16.880Z,29.65
2019-05-29T12:04:25.669Z,29.36
2019-05-29T12:05:15.943Z,29.06
2019-05-29T12:06:15.960Z,29.36
2019-05-29T12:07:15.942Z,29.25
2019-05-29T12:08:16.885Z,28.66
2019-05-29T12:09:31.289Z,28.77
2019-05-29T12:10:15.947Z,29.75
2019-05-29T12:11:15.891Z,29.25
2019-05-29T12:12:15.857Z,29.67
2019-05-29T12:13:16.392Z,29.75
2019-05-29T12:14:15.945Z,29.67
2019-05-29T12:15:18.450Z,29.57
2019-05-29T12:16:15.812Z,30.44
2019-05-29T12:17:15.800Z,29.57
2019-05-29T12:18:23.726Z,29.27
2019-05-29T12:19:15.798Z,29.36
2019-05-29T12:20:31.358Z,29.95
2019-05-29T12:21:15.767Z,30.74
2019-05-29T12:22:15.777Z,30.44
2019-05-29T12:23:25.947Z,31.26
2019-05-29T12:24:15.741Z,31.95
2019-05-29T12:25:15.756Z,30.66
2019-05-29T12:26:22.641Z,30.44
2019-05-29T12:27:15.719Z,31.24
2019-05-29T12:28:15.681Z,30.56
2019-05-29T12:29:15.888Z,30.46
2019-05-29T12:30:15.693Z,30.66
2019-05-29T12:31:16.403Z,30.36
2019-05-29T12:32:15.672Z,30.66
2019-05-29T12:33:15.634Z,30.66
2019-05-29T12:34:19.233Z,30.36
2019-05-29T12:35:15.616Z,30.56
2019-05-29T12:36:16.432Z,30.66
2019-05-29T12:37:16.433Z,31.65
2019-05-29T12:38:15.572Z,32.35
2019-05-29T12:39:15.584Z,31.75
2019-05-29T12:40:15.568Z,31.95
2019-05-29T12:41:16.431Z,31.85
2019-05-29T12:42:15.539Z,31.57
2019-05-29T12:43:26.433Z,31.55
2019-05-29T12:44:15.532Z,31.55
2019-05-29T12:45:15.515Z,31.35
2019-05-29T12:46:15.496Z,32.15
2019-05-29T12:47:15.481Z,31.75
2019-05-29T12:48:16.206Z,31.65
2019-05-29T12:49:15.508Z,31.55
2019-05-29T12:50:16.428Z,31.45
2019-05-29T12:51:16.431Z,31.55
2019-05-29T12:52:15.423Z,32.05